createdAt,value
2024-03-02T00:11:22.484Z,9
2024-03-02T00:40:28.237Z,9
2024-03-02T01:09:33.961Z,7
2024-03-02T01:38:36.038Z,8
2024-03-02T02:07:47.933Z,9
2024-03-02T02:36:54.978Z,7
2024-03-02T03:06:03.010Z,7
2024-03-02T03:35:12.397Z,8
2024-03-02T04:04:19.676Z,7
2024-03-02T04:33:35.327Z,7
2024-03-02T05:02:37.602Z,7
2024-03-02T05:31:40.565Z,7
2024-03-02T06:00:48.366Z,7
2024-03-02T06:29:48.154Z,7
2024-03-02T06:58:58.722Z,7
2024-03-02T07:28:14.341Z,6
2024-03-02T07:57:32.442Z,6
2024-03-02T08:26:52.669Z,6
2024-03-02T08:56:04.276Z,7
2024-03-02T09:25:29.167Z,6
2024-03-02T09:54:44.420Z,12
2024-03-02T10:23:36.497Z,5
2024-03-02T10:52:53.703Z,9
2024-03-02T11:22:20.889Z,7
2024-03-02T11:51:47.723Z,7
2024-03-02T12:21:06.204Z,9
2024-03-02T12:50:25.355Z,31
2024-03-02T13:19:39.746Z,4
2024-03-02T13:48:45.123Z,8
2024-03-02T14:17:53.409Z,11
2024-03-02T14:47:06.005Z,6
2024-03-02T15:16:18.311Z,30
2024-03-02T15:45:31.462Z,10
2024-03-02T16:14:45.381Z,11
2024-03-02T16:44:02.181Z,9
2024-03-02T17:12:49.971Z,14
2024-03-02T17:41:48.969Z,14
2024-03-02T18:11:07.147Z,28
2024-03-02T18:40:17.160Z,32
2024-03-02T19:09:22.266Z,25
2024-03-02T19:38:25.833Z,52
2024-03-02T20:07:39.444Z,28
2024-03-02T20:36:56.829Z,32
2024-03-02T21:06:03.994Z,33
2024-03-02T21:35:10.495Z,29
2024-03-02T22:04:30.322Z,30
2024-03-02T22:33:46.052Z,21
2024-03-02T23:02:51.685Z,21
2024-03-02T23:32:07.516Z,24
